sensor_id;sensor_type;location;lat;lon;timestamp;temperature;humidity
3300;DHT22;1662;49.310;8.134;2023-02-28T00:00:33;1.80;99.90
3300;DHT22;1662;49.310;8.134;2023-02-28T00:02:59;1.80;99.90
3300;DHT22;1662;49.310;8.134;2023-02-28T00:05:26;1.80;99.90
3300;DHT22;1662;49.310;8.134;2023-02-28T00:07:52;1.70;99.90
3300;DHT22;1662;49.310;8.134;2023-02-28T00:10:19;1.70;99.90
3300;DHT22;1662;49.310;8.134;2023-02-28T00:12:49;1.70;99.90
3300;DHT22;1662;49.310;8.134;2023-02-28T00:15:16;1.70;99.90
3300;DHT22;1662;49.310;8.134;2023-02-28T00:17:44;1.70;99.90
3300;DHT22;1662;49.310;8.134;2023-02-28T00:20:11;1.70;99.90
3300;DHT22;1662;49.310;8.134;2023-02-28T00:22:42;1.60;99.90
3300;DHT22;1662;49.310;8.134;2023-02-28T00:25:10;1.50;99.90
3300;DHT22;1662;49.310;8.134;2023-02-28T00:27:37;1.50;99.90
3300;DHT22;1662;49.310;8.134;2023-02-28T00:30:07;1.50;99.90
3300;DHT22;1662;49.310;8.134;2023-02-28T00:32:35;1.40;99.90
3300;DHT22;1662;49.310;8.134;2023-02-28T00:35:01;1.40;99.90
3300;DHT22;1662;49.310;8.134;2023-02-28T00:39:53;1.40;99.90
3300;DHT22;1662;49.310;8.134;2023-02-28T00:42:21;1.40;99.90
3300;DHT22;1662;49.310;8.134;2023-02-28T00:44:47;1.40;99.90
3300;DHT22;1662;49.310;8.134;2023-02-28T00:47:12;1.40;99.90
3300;DHT22;1662;49.310;8.134;2023-02-28T00:49:38;1.40;99.90
3300;DHT22;1662;49.310;8.134;2023-02-28T00:52:04;1.40;99.90
3300;DHT22;1662;49.310;8.134;2023-02-28T00:54:29;1.40;99.90
3300;DHT22;1662;49.310;8.134;2023-02-28T00:56:55;1.40;99.90
3300;DHT22;1662;49.310;8.134;2023-02-28T00:59:21;1.40;99.90
3300;DHT22;1662;49.310;8.134;2023-02-28T01:01:46;1.50;99.90
3300;DHT22;1662;49.310;8.134;2023-02-28T01:04:13;1.50;99.90
3300;DHT22;1662;49.310;8.134;2023-02-28T01:06:39;1.50;99.90
3300;DHT22;1662;49.310;8.134;2023-02-28T01:09:06;1.50;99.90
3300;DHT22;1662;49.310;8.134;2023-02-28T01:11:32;1.40;99.90
3300;DHT22;1662;49.310;8.134;2023-02-28T01:13:58;1.40;99.90
3300;DHT22;1662;49.310;8.134;2023-02-28T01:16:24;1.40;99.90
3300;DHT22;1662;49.310;8.134;2023-02-28T01:18:50;1.30;99.90
3300;DHT22;1662;49.310;8.134;2023-02-28T01:21:18;1.30;99.90
3300;DHT22;1662;49.310;8.134;2023-02-28T01:23:44;1.30;99.90
3300;DHT22;1662;49.310;8.134;2023-02-28T01:26:18;1.30;99.90
3300;DHT22;1662;49.310;8.134;2023-02-28T01:28:44;1.30;99.90
3300;DHT22;1662;49.310;8.134;2023-02-28T01:31:10;1.30;99.90
3300;DHT22;1662;49.310;8.134;2023-02-28T01:33:36;1.40;99.90
3300;DHT22;1662;49.310;8.134;2023-02-28T01:36:05;1.40;99.90
3300;DHT22;1662;49.310;8.134;2023-02-28T01:38:32;1.40;99.90
3300;DHT22;1662;49.310;8.134;2023-02-28T01:40:57;1.40;99.90
3300;DHT22;1662;49.310;8.134;2023-02-28T01:43:32;1.40;99.90
3300;DHT22;1662;49.310;8.134;2023-02-28T01:45:58;1.50;99.90
3300;DHT22;1662;49.310;8.134;2023-02-28T01:48:36;1.50;99.90
3300;DHT22;1662;49.310;8.134;2023-02-28T01:51:08;1.40;99.90
3300;DHT22;1662;49.310;8.134;2023-02-28T01:53:46;1.30;99.90
3300;DHT22;1662;49.310;8.134;2023-02-28T01:56:14;1.30;99.90
3300;DHT22;1662;49.310;8.134;2023-02-28T01:58:47;1.30;99.90
3300;DHT22;1662;49.310;8.134;2023-02-28T02:01:12;1.30;99.90
3300;DHT22;1662;49.310;8.134;2023-02-28T02:03:50;1.20;99.90
3300;DHT22;1662;49.310;8.134;2023-02-28T02:06:28;1.30;99.90
3300;DHT22;1662;49.310;8.134;2023-02-28T02:08:54;1.30;99.90
3300;DHT22;1662;49.310;8.134;2023-02-28T02:11:22;1.20;99.90
3300;DHT22;1662;49.310;8.134;2023-02-28T02:30:53;1.10;99.90
3300;DHT22;1662;49.310;8.134;2023-02-28T02:38:47;1.00;99.90
3300;DHT22;1662;49.310;8.134;2023-02-28T02:43:54;0.90;99.90
3300;DHT22;1662;49.310;8.134;2023-02-28T02:46:32;0.80;99.90
3300;DHT22;1662;49.310;8.134;2023-02-28T02:49:03;0.80;99.90
3300;DHT22;1662;49.310;8.134;2023-02-28T02:51:30;0.70;99.90
3300;DHT22;1662;49.310;8.134;2023-02-28T02:54:08;0.60;99.90
3300;DHT22;1662;49.310;8.134;2023-02-28T02:56:39;0.70;99.90
3300;DHT22;1662;49.310;8.134;2023-02-28T02:59:10;0.80;99.90
3300;DHT22;1662;49.310;8.134;2023-02-28T03:01:37;0.70;99.90
3300;DHT22;1662;49.310;8.134;2023-02-28T03:04:11;0.70;99.90
3300;DHT22;1662;49.310;8.134;2023-02-28T03:06:39;0.70;99.90
3300;DHT22;1662;49.310;8.134;2023-02-28T03:09:04;0.70;99.90
3300;DHT22;1662;49.310;8.134;2023-02-28T03:11:33;0.60;99.90
3300;DHT22;1662;49.310;8.134;2023-02-28T03:25:26;0.70;99.90
3300;DHT22;1662;49.310;8.134;2023-02-28T03:28:10;0.70;99.90
3300;DHT22;1662;49.310;8.134;2023-02-28T03:30:50;0.70;99.90
3300;DHT22;1662;49.310;8.134;2023-02-28T03:33:23;0.50;99.90
3300;DHT22;1662;49.310;8.134;2023-02-28T03:36:04;0.60;99.90
3300;DHT22;1662;49.310;8.134;2023-02-28T03:38:38;0.70;99.90
3300;DHT22;1662;49.310;8.134;2023-02-28T03:41:17;0.70;99.90
3300;DHT22;1662;49.310;8.134;2023-02-28T03:44:04;0.60;99.90
3300;DHT22;1662;49.310;8.134;2023-02-28T03:46:34;0.70;99.90
3300;DHT22;1662;49.310;8.134;2023-02-28T03:49:13;0.60;99.90
3300;DHT22;1662;49.310;8.134;2023-02-28T03:51:42;0.60;99.90
3300;DHT22;1662;49.310;8.134;2023-02-28T03:54:15;0.50;99.90
3300;DHT22;1662;49.310;8.134;2023-02-28T03:56:55;0.50;99.90
3300;DHT22;1662;49.310;8.134;2023-02-28T03:59:28;0.60;99.90
3300;DHT22;1662;49.310;8.134;2023-02-28T04:01:57;0.60;99.90
3300;DHT22;1662;49.310;8.134;2023-02-28T04:04:23;0.50;99.90
3300;DHT22;1662;49.310;8.134;2023-02-28T04:06:51;0.40;99.90
3300;DHT22;1662;49.310;8.134;2023-02-28T04:09:17;0.40;99.90
3300;DHT22;1662;49.310;8.134;2023-02-28T04:11:45;0.50;99.90
3300;DHT22;1662;49.310;8.134;2023-02-28T04:14:12;0.40;99.90
3300;DHT22;1662;49.310;8.134;2023-02-28T04:16:40;0.40;99.90
3300;DHT22;1662;49.310;8.134;2023-02-28T04:19:08;0.30;99.90
3300;DHT22;1662;49.310;8.134;2023-02-28T04:21:43;0.30;99.90
3300;DHT22;1662;49.310;8.134;2023-02-28T04:24:11;0.30;99.90
3300;DHT22;1662;49.310;8.134;2023-02-28T04:26:40;0.30;99.90
3300;DHT22;1662;49.310;8.134;2023-02-28T04:29:07;0.30;99.90
3300;DHT22;1662;49.310;8.134;2023-02-28T04:31:33;0.20;99.90
3300;DHT22;1662;49.310;8.134;2023-02-28T04:33:59;0.30;99.90
3300;DHT22;1662;49.310;8.134;2023-02-28T04:36:25;0.50;99.90
3300;DHT22;1662;49.310;8.134;2023-02-28T04:38:51;0.40;99.90
3300;DHT22;1662;49.310;8.134;2023-02-28T04:41:17;0.40;99.90
3300;DHT22;1662;49.310;8.134;2023-02-28T04:43:42;0.40;99.90
3300;DHT22;1662;49.310;8.134;2023-02-28T04:46:09;0.30;99.90
3300;DHT22;1662;49.310;8.134;2023-02-28T04:48:36;0.40;99.90
3300;DHT22;1662;49.310;8.134;2023-02-28T04:51:07;0.30;99.90
3300;DHT22;1662;49.310;8.134;2023-02-28T04:53:34;0.30;99.90
3300;DHT22;1662;49.310;8.134;2023-02-28T04:56:01;0.30;99.90
3300;DHT22;1662;49.310;8.134;2023-02-28T04:58:26;0.30;99.90
3300;DHT22;1662;49.310;8.134;2023-02-28T05:00:54;0.30;99.90
3300;DHT22;1662;49.310;8.134;2023-02-28T05:03:22;0.30;99.90
3300;DHT22;1662;49.310;8.134;2023-02-28T05:05:50;0.40;99.90
3300;DHT22;1662;49.310;8.134;2023-02-28T05:08:15;0.40;99.90
3300;DHT22;1662;49.310;8.134;2023-02-28T05:10:41;0.30;99.90
3300;DHT22;1662;49.310;8.134;2023-02-28T05:13:08;0.40;99.90
3300;DHT22;1662;49.310;8.134;2023-02-28T05:15:34;0.40;99.90
3300;DHT22;1662;49.310;8.134;2023-02-28T05:18:00;0.40;99.90
3300;DHT22;1662;49.310;8.134;2023-02-28T05:20:25;0.40;99.90
3300;DHT22;1662;49.310;8.134;2023-02-28T05:22:51;0.40;99.90
3300;DHT22;1662;49.310;8.134;2023-02-28T05:25:20;0.40;99.90
3300;DHT22;1662;49.310;8.134;2023-02-28T05:27:48;0.50;99.90
3300;DHT22;1662;49.310;8.134;2023-02-28T05:30:14;0.50;99.90
3300;DHT22;1662;49.310;8.134;2023-02-28T05:32:40;0.40;99.90
3300;DHT22;1662;49.310;8.134;2023-02-28T05:35:12;0.40;99.90
3300;DHT22;1662;49.310;8.134;2023-02-28T05:37:39;0.30;99.90
3300;DHT22;1662;49.310;8.134;2023-02-28T05:40:06;0.30;99.90
3300;DHT22;1662;49.310;8.134;2023-02-28T05:42:32;0.30;99.90
3300;DHT22;1662;49.310;8.134;2023-02-28T05:44:58;0.40;99.90
3300;DHT22;1662;49.310;8.134;2023-02-28T05:47:26;0.40;99.90
3300;DHT22;1662;49.310;8.134;2023-02-28T05:49:55;0.40;99.90
3300;DHT22;1662;49.310;8.134;2023-02-28T05:52:20;0.40;99.90
3300;DHT22;1662;49.310;8.134;2023-02-28T05:54:46;0.40;99.90
3300;DHT22;1662;49.310;8.134;2023-02-28T05:57:12;0.40;99.90
3300;DHT22;1662;49.310;8.134;2023-02-28T05:59:40;0.40;99.90
3300;DHT22;1662;49.310;8.134;2023-02-28T06:02:13;0.40;99.90
3300;DHT22;1662;49.310;8.134;2023-02-28T06:04:39;0.30;99.90
3300;DHT22;1662;49.310;8.134;2023-02-28T06:07:06;0.40;99.90
3300;DHT22;1662;49.310;8.134;2023-02-28T06:09:32;0.50;99.90
3300;DHT22;1662;49.310;8.134;2023-02-28T06:12:02;0.50;99.90
3300;DHT22;1662;49.310;8.134;2023-02-28T06:14:31;0.50;99.90
3300;DHT22;1662;49.310;8.134;2023-02-28T06:16:58;0.40;99.90
3300;DHT22;1662;49.310;8.134;2023-02-28T06:19:24;0.40;99.90
3300;DHT22;1662;49.310;8.134;2023-02-28T06:21:51;0.40;99.90
3300;DHT22;1662;49.310;8.134;2023-02-28T06:24:22;0.50;99.90
3300;DHT22;1662;49.310;8.134;2023-02-28T06:26:48;0.50;99.90
3300;DHT22;1662;49.310;8.134;2023-02-28T06:29:14;0.40;99.90
3300;DHT22;1662;49.310;8.134;2023-02-28T06:31:44;0.40;99.90
3300;DHT22;1662;49.310;8.134;2023-02-28T06:34:11;0.50;99.90
3300;DHT22;1662;49.310;8.134;2023-02-28T06:36:42;0.50;99.90
3300;DHT22;1662;49.310;8.134;2023-02-28T06:39:09;0.50;99.90
3300;DHT22;1662;49.310;8.134;2023-02-28T06:41:35;0.40;99.90
3300;DHT22;1662;49.310;8.134;2023-02-28T06:44:04;0.50;99.90
3300;DHT22;1662;49.310;8.134;2023-02-28T06:46:32;0.40;99.90
3300;DHT22;1662;49.310;8.134;2023-02-28T06:48:57;0.40;99.90
3300;DHT22;1662;49.310;8.134;2023-02-28T06:51:23;0.40;99.90
3300;DHT22;1662;49.310;8.134;2023-02-28T06:53:50;0.40;99.90
3300;DHT22;1662;49.310;8.134;2023-02-28T06:56:16;0.50;99.90
3300;DHT22;1662;49.310;8.134;2023-02-28T06:58:46;0.50;99.90
3300;DHT22;1662;49.310;8.134;2023-02-28T07:01:13;0.50;99.90
3300;DHT22;1662;49.310;8.134;2023-02-28T07:03:39;0.40;99.90
3300;DHT22;1662;49.310;8.134;2023-02-28T07:06:05;0.50;99.90
3300;DHT22;1662;49.310;8.134;2023-02-28T07:08:32;0.50;99.90
3300;DHT22;1662;49.310;8.134;2023-02-28T07:11:00;0.50;99.90
3300;DHT22;1662;49.310;8.134;2023-02-28T07:13:29;0.50;99.90
3300;DHT22;1662;49.310;8.134;2023-02-28T07:16:00;0.50;99.90
3300;DHT22;1662;49.310;8.134;2023-02-28T07:18:27;0.60;99.90
3300;DHT22;1662;49.310;8.134;2023-02-28T07:20:53;0.60;99.90
3300;DHT22;1662;49.310;8.134;2023-02-28T07:23:19;0.60;99.90
3300;DHT22;1662;49.310;8.134;2023-02-28T07:25:45;0.60;99.90
3300;DHT22;1662;49.310;8.134;2023-02-28T07:28:14;0.60;99.90
3300;DHT22;1662;49.310;8.134;2023-02-28T07:30:40;0.60;99.90
3300;DHT22;1662;49.310;8.134;2023-02-28T07:33:09;0.50;99.90
3300;DHT22;1662;49.310;8.134;2023-02-28T07:35:34;0.60;99.90
3300;DHT22;1662;49.310;8.134;2023-02-28T07:38:00;0.50;99.90
3300;DHT22;1662;49.310;8.134;2023-02-28T07:40:26;0.50;99.90
3300;DHT22;1662;49.310;8.134;2023-02-28T07:42:51;0.60;99.90
3300;DHT22;1662;49.310;8.134;2023-02-28T07:45:18;0.50;99.90
3300;DHT22;1662;49.310;8.134;2023-02-28T07:47:44;0.60;99.90
3300;DHT22;1662;49.310;8.134;2023-02-28T07:50:15;0.50;99.90
3300;DHT22;1662;49.310;8.134;2023-02-28T07:52:41;0.60;99.90
3300;DHT22;1662;49.310;8.134;2023-02-28T07:55:09;0.50;99.90
3300;DHT22;1662;49.310;8.134;2023-02-28T07:57:35;0.50;99.90
3300;DHT22;1662;49.310;8.134;2023-02-28T08:00:05;0.60;99.90
3300;DHT22;1662;49.310;8.134;2023-02-28T08:02:30;0.60;99.90
3300;DHT22;1662;49.310;8.134;2023-02-28T08:04:56;0.70;99.90
3300;DHT22;1662;49.310;8.134;2023-02-28T08:07:24;0.70;99.90
3300;DHT22;1662;49.310;8.134;2023-02-28T08:09:52;0.80;99.90
3300;DHT22;1662;49.310;8.134;2023-02-28T08:12:21;0.80;99.90
3300;DHT22;1662;49.310;8.134;2023-02-28T08:14:46;0.80;99.90
3300;DHT22;1662;49.310;8.134;2023-02-28T08:17:12;0.90;99.90
3300;DHT22;1662;49.310;8.134;2023-02-28T08:19:38;1.20;99.90
3300;DHT22;1662;49.310;8.134;2023-02-28T08:22:04;1.30;99.90
3300;DHT22;1662;49.310;8.134;2023-02-28T08:24:29;1.30;99.90
3300;DHT22;1662;49.310;8.134;2023-02-28T08:26:55;1.20;99.90
3300;DHT22;1662;49.310;8.134;2023-02-28T08:29:21;1.20;99.90
3300;DHT22;1662;49.310;8.134;2023-02-28T08:31:47;1.10;99.90
3300;DHT22;1662;49.310;8.134;2023-02-28T08:34:14;1.10;99.90
3300;DHT22;1662;49.310;8.134;2023-02-28T08:36:41;1.10;99.90
3300;DHT22;1662;49.310;8.134;2023-02-28T08:39:07;1.10;99.90
3300;DHT22;1662;49.310;8.134;2023-02-28T08:41:33;1.10;99.90
3300;DHT22;1662;49.310;8.134;2023-02-28T08:43:59;1.20;99.90
3300;DHT22;1662;49.310;8.134;2023-02-28T08:46:25;1.30;99.90
3300;DHT22;1662;49.310;8.134;2023-02-28T08:48:55;1.40;99.90
3300;DHT22;1662;49.310;8.134;2023-02-28T08:51:24;1.50;99.90
3300;DHT22;1662;49.310;8.134;2023-02-28T08:53:59;1.50;99.90
3300;DHT22;1662;49.310;8.134;2023-02-28T08:56:26;1.60;99.90
3300;DHT22;1662;49.310;8.134;2023-02-28T08:58:53;1.60;99.90
3300;DHT22;1662;49.310;8.134;2023-02-28T09:01:23;1.60;99.90
3300;DHT22;1662;49.310;8.134;2023-02-28T09:03:50;1.60;99.90
3300;DHT22;1662;49.310;8.134;2023-02-28T09:06:17;1.70;99.90
3300;DHT22;1662;49.310;8.134;2023-02-28T09:08:44;1.60;99.90
3300;DHT22;1662;49.310;8.134;2023-02-28T09:11:10;1.60;99.90
3300;DHT22;1662;49.310;8.134;2023-02-28T09:13:36;1.70;99.90
3300;DHT22;1662;49.310;8.134;2023-02-28T09:16:07;1.70;99.90
3300;DHT22;1662;49.310;8.134;2023-02-28T09:18:36;1.70;99.90
3300;DHT22;1662;49.310;8.134;2023-02-28T09:21:11;1.80;99.90
3300;DHT22;1662;49.310;8.134;2023-02-28T09:23:38;1.80;99.90
3300;DHT22;1662;49.310;8.134;2023-02-28T09:26:04;2.00;99.90
3300;DHT22;1662;49.310;8.134;2023-02-28T09:28:30;2.00;99.90
3300;DHT22;1662;49.310;8.134;2023-02-28T09:30:56;2.10;99.90
3300;DHT22;1662;49.310;8.134;2023-02-28T09:33:24;2.20;99.90
3300;DHT22;1662;49.310;8.134;2023-02-28T09:35:50;2.30;99.90
3300;DHT22;1662;49.310;8.134;2023-02-28T09:38:17;2.50;99.90
3300;DHT22;1662;49.310;8.134;2023-02-28T09:40:54;2.60;99.90
3300;DHT22;1662;49.310;8.134;2023-02-28T09:43:24;2.70;99.90
3300;DHT22;1662;49.310;8.134;2023-02-28T09:46:04;2.80;99.90
3300;DHT22;1662;49.310;8.134;2023-02-28T09:48:39;2.90;99.90
3300;DHT22;1662;49.310;8.134;2023-02-28T09:53:48;3.10;99.90
3300;DHT22;1662;49.310;8.134;2023-02-28T09:56:27;3.20;99.90
3300;DHT22;1662;49.310;8.134;2023-02-28T10:02:04;3.30;99.90
3300;DHT22;1662;49.310;8.134;2023-02-28T10:07:50;3.30;99.90
3300;DHT22;1662;49.310;8.134;2023-02-28T10:10:35;3.30;99.90
3300;DHT22;1662;49.310;8.134;2023-02-28T10:15:54;3.40;99.90
3300;DHT22;1662;49.310;8.134;2023-02-28T10:18:44;3.50;99.90
3300;DHT22;1662;49.310;8.134;2023-02-28T10:23:49;3.70;99.90
3300;DHT22;1662;49.310;8.134;2023-02-28T10:26:19;3.60;99.90
3300;DHT22;1662;49.310;8.134;2023-02-28T10:28:45;3.40;99.90
3300;DHT22;1662;49.310;8.134;2023-02-28T10:31:19;3.40;99.90
3300;DHT22;1662;49.310;8.134;2023-02-28T10:33:44;3.30;99.90
3300;DHT22;1662;49.310;8.134;2023-02-28T10:36:14;3.30;99.90
3300;DHT22;1662;49.310;8.134;2023-02-28T10:38:42;3.30;99.90
3300;DHT22;1662;49.310;8.134;2023-02-28T10:41:10;3.30;99.90
3300;DHT22;1662;49.310;8.134;2023-02-28T10:43:39;3.40;99.90
3300;DHT22;1662;49.310;8.134;2023-02-28T10:48:38;3.80;99.90
3300;DHT22;1662;49.310;8.134;2023-02-28T10:51:11;4.10;99.90
3300;DHT22;1662;49.310;8.134;2023-02-28T10:58:56;4.50;99.90
3300;DHT22;1662;49.310;8.134;2023-02-28T11:01:48;4.50;99.90
3300;DHT22;1662;49.310;8.134;2023-02-28T11:06:58;4.90;99.90
3300;DHT22;1662;49.310;8.134;2023-02-28T11:11:55;4.90;99.90
3300;DHT22;1662;49.310;8.134;2023-02-28T11:14:25;4.70;99.90
3300;DHT22;1662;49.310;8.134;2023-02-28T11:16:52;4.70;99.90
3300;DHT22;1662;49.310;8.134;2023-02-28T11:19:34;4.70;99.90
3300;DHT22;1662;49.310;8.134;2023-02-28T11:22:04;4.80;99.90
3300;DHT22;1662;49.310;8.134;2023-02-28T11:24:37;4.90;99.90
3300;DHT22;1662;49.310;8.134;2023-02-28T11:27:05;4.90;99.90
3300;DHT22;1662;49.310;8.134;2023-02-28T11:29:32;5.00;99.90
3300;DHT22;1662;49.310;8.134;2023-02-28T11:32:19;5.10;99.90
3300;DHT22;1662;49.310;8.134;2023-02-28T11:34:47;5.10;99.90
3300;DHT22;1662;49.310;8.134;2023-02-28T11:37:25;5.10;99.90
3300;DHT22;1662;49.310;8.134;2023-02-28T11:39:52;5.20;99.90
3300;DHT22;1662;49.310;8.134;2023-02-28T11:48:11;6.20;99.90
3300;DHT22;1662;49.310;8.134;2023-02-28T11:58:55;6.70;99.90
3300;DHT22;1662;49.310;8.134;2023-02-28T12:29:15;7.40;99.90
3300;DHT22;1662;49.310;8.134;2023-02-28T12:31:49;7.30;99.90
3300;DHT22;1662;49.310;8.134;2023-02-28T12:34:44;7.10;99.90
3300;DHT22;1662;49.310;8.134;2023-02-28T12:37:17;7.00;99.90
3300;DHT22;1662;49.310;8.134;2023-02-28T12:39:48;6.70;99.90
3300;DHT22;1662;49.310;8.134;2023-02-28T12:42:30;6.70;99.90
3300;DHT22;1662;49.310;8.134;2023-02-28T12:47:38;6.70;99.90
3300;DHT22;1662;49.310;8.134;2023-02-28T12:50:08;6.70;99.90
3300;DHT22;1662;49.310;8.134;2023-02-28T12:58:35;7.10;99.90
3300;DHT22;1662;49.310;8.134;2023-02-28T13:09:21;7.60;99.90
3300;DHT22;1662;49.310;8.134;2023-02-28T13:11:53;7.70;99.90
3300;DHT22;1662;49.310;8.134;2023-02-28T13:14:29;7.70;99.90
3300;DHT22;1662;49.310;8.134;2023-02-28T13:19:35;7.80;99.90
3300;DHT22;1662;49.310;8.134;2023-02-28T13:22:03;7.80;99.90
3300;DHT22;1662;49.310;8.134;2023-02-28T13:24:50;8.10;99.90
3300;DHT22;1662;49.310;8.134;2023-02-28T13:29:52;8.10;99.90
3300;DHT22;1662;49.310;8.134;2023-02-28T13:32:34;7.90;99.90
3300;DHT22;1662;49.310;8.134;2023-02-28T13:37:42;7.90;99.90
3300;DHT22;1662;49.310;8.134;2023-02-28T13:42:48;8.40;99.90
3300;DHT22;1662;49.310;8.134;2023-02-28T13:45:27;8.40;99.90
3300;DHT22;1662;49.310;8.134;2023-02-28T13:47:54;8.40;99.90
3300;DHT22;1662;49.310;8.134;2023-02-28T13:55:41;8.60;99.90
3300;DHT22;1662;49.310;8.134;2023-02-28T13:58:45;8.80;99.90
3300;DHT22;1662;49.310;8.134;2023-02-28T14:06:49;8.70;98.70
3300;DHT22;1662;49.310;8.134;2023-02-28T14:11:42;8.90;98.10
3300;DHT22;1662;49.310;8.134;2023-02-28T14:14:53;9.00;97.40
3300;DHT22;1662;49.310;8.134;2023-02-28T14:16:55;8.80;98.50
3300;DHT22;1662;49.310;8.134;2023-02-28T14:19:28;8.60;99.50
3300;DHT22;1662;49.310;8.134;2023-02-28T14:25:10;8.60;98.30
3300;DHT22;1662;49.310;8.134;2023-02-28T14:30:56;8.50;98.70
3300;DHT22;1662;49.310;8.134;2023-02-28T14:38:31;9.10;97.20
3300;DHT22;1662;49.310;8.134;2023-02-28T14:41:00;9.30;96.80
3300;DHT22;1662;49.310;8.134;2023-02-28T14:43:27;9.30;96.40
3300;DHT22;1662;49.310;8.134;2023-02-28T14:45:59;9.40;95.90
3300;DHT22;1662;49.310;8.134;2023-02-28T14:48:33;9.70;96.80
3300;DHT22;1662;49.310;8.134;2023-02-28T14:51:01;9.70;95.90
3300;DHT22;1662;49.310;8.134;2023-02-28T14:53:36;9.40;95.10
3300;DHT22;1662;49.310;8.134;2023-02-28T14:56:02;9.30;95.60
3300;DHT22;1662;49.310;8.134;2023-02-28T14:58:33;9.20;94.40
3300;DHT22;1662;49.310;8.134;2023-02-28T15:01:02;9.10;94.20
3300;DHT22;1662;49.310;8.134;2023-02-28T15:06:01;9.40;93.40
3300;DHT22;1662;49.310;8.134;2023-02-28T15:08:31;9.50;94.60
3300;DHT22;1662;49.310;8.134;2023-02-28T15:11:02;9.50;94.30
3300;DHT22;1662;49.310;8.134;2023-02-28T15:13:46;9.30;92.40
3300;DHT22;1662;49.310;8.134;2023-02-28T15:16:22;9.20;95.10
3300;DHT22;1662;49.310;8.134;2023-02-28T15:18:56;9.20;93.60
3300;DHT22;1662;49.310;8.134;2023-02-28T15:21:27;9.10;94.00
3300;DHT22;1662;49.310;8.134;2023-02-28T15:24:04;9.30;94.00
3300;DHT22;1662;49.310;8.134;2023-02-28T15:26:33;9.20;93.50
3300;DHT22;1662;49.310;8.134;2023-02-28T15:29:14;9.00;93.80
3300;DHT22;1662;49.310;8.134;2023-02-28T15:31:45;8.90;96.30
3300;DHT22;1662;49.310;8.134;2023-02-28T15:34:38;8.90;95.40
3300;DHT22;1662;49.310;8.134;2023-02-28T15:37:46;8.70;95.40
3300;DHT22;1662;49.310;8.134;2023-02-28T15:40:26;8.30;95.10
3300;DHT22;1662;49.310;8.134;2023-02-28T15:43:14;8.10;97.50
3300;DHT22;1662;49.310;8.134;2023-02-28T15:45:54;7.90;96.80
3300;DHT22;1662;49.310;8.134;2023-02-28T15:48:22;7.70;96.90
3300;DHT22;1662;49.310;8.134;2023-02-28T15:50:51;7.50;97.30
3300;DHT22;1662;49.310;8.134;2023-02-28T15:53:27;7.50;97.80
3300;DHT22;1662;49.310;8.134;2023-02-28T15:56:00;7.40;97.60
3300;DHT22;1662;49.310;8.134;2023-02-28T15:58:26;7.40;97.70
3300;DHT22;1662;49.310;8.134;2023-02-28T16:01:15;7.20;98.00
3300;DHT22;1662;49.310;8.134;2023-02-28T16:03:48;7.00;97.50
3300;DHT22;1662;49.310;8.134;2023-02-28T16:08:42;7.10;98.50
3300;DHT22;1662;49.310;8.134;2023-02-28T16:11:13;7.00;98.80
3300;DHT22;1662;49.310;8.134;2023-02-28T16:13:39;7.10;99.10
3300;DHT22;1662;49.310;8.134;2023-02-28T16:16:04;7.10;98.80
3300;DHT22;1662;49.310;8.134;2023-02-28T16:18:30;7.00;99.30
3300;DHT22;1662;49.310;8.134;2023-02-28T16:20:56;7.00;99.90
3300;DHT22;1662;49.310;8.134;2023-02-28T16:23:21;7.10;99.90
3300;DHT22;1662;49.310;8.134;2023-02-28T16:25:47;7.00;99.80
3300;DHT22;1662;49.310;8.134;2023-02-28T16:28:22;7.00;99.90
3300;DHT22;1662;49.310;8.134;2023-02-28T16:30:51;6.80;99.90
3300;DHT22;1662;49.310;8.134;2023-02-28T16:33:17;6.70;99.90
3300;DHT22;1662;49.310;8.134;2023-02-28T16:35:43;6.50;99.90
3300;DHT22;1662;49.310;8.134;2023-02-28T16:38:08;6.50;99.90
3300;DHT22;1662;49.310;8.134;2023-02-28T16:40:37;6.40;99.90
3300;DHT22;1662;49.310;8.134;2023-02-28T16:43:23;6.30;99.90
3300;DHT22;1662;49.310;8.134;2023-02-28T16:45:55;6.30;99.90
3300;DHT22;1662;49.310;8.134;2023-02-28T16:48:21;6.20;99.90
3300;DHT22;1662;49.310;8.134;2023-02-28T16:50:47;6.20;99.90
3300;DHT22;1662;49.310;8.134;2023-02-28T16:53:12;6.10;99.90
3300;DHT22;1662;49.310;8.134;2023-02-28T16:55:39;6.00;99.90
3300;DHT22;1662;49.310;8.134;2023-02-28T16:58:04;5.90;99.90
3300;DHT22;1662;49.310;8.134;2023-02-28T17:00:31;5.90;99.90
3300;DHT22;1662;49.310;8.134;2023-02-28T17:02:58;6.00;99.90
3300;DHT22;1662;49.310;8.134;2023-02-28T17:05:25;6.10;99.90
3300;DHT22;1662;49.310;8.134;2023-02-28T17:07:52;6.10;99.90
3300;DHT22;1662;49.310;8.134;2023-02-28T17:10:23;6.10;99.90
3300;DHT22;1662;49.310;8.134;2023-02-28T17:12:49;6.00;99.90
3300;DHT22;1662;49.310;8.134;2023-02-28T17:15:17;5.90;99.90
3300;DHT22;1662;49.310;8.134;2023-02-28T17:17:43;5.70;99.90
3300;DHT22;1662;49.310;8.134;2023-02-28T17:20:21;5.60;99.90
3300;DHT22;1662;49.310;8.134;2023-02-28T17:22:53;5.50;99.90
3300;DHT22;1662;49.310;8.134;2023-02-28T17:25:20;5.40;99.90
3300;DHT22;1662;49.310;8.134;2023-02-28T17:27:46;6.00;99.90
3300;DHT22;1662;49.310;8.134;2023-02-28T17:30:24;5.90;99.90
3300;DHT22;1662;49.310;8.134;2023-02-28T17:32:53;5.60;99.90
3300;DHT22;1662;49.310;8.134;2023-02-28T17:35:18;5.30;99.90
3300;DHT22;1662;49.310;8.134;2023-02-28T17:37:44;5.10;99.90
3300;DHT22;1662;49.310;8.134;2023-02-28T17:40:20;5.00;99.90
3300;DHT22;1662;49.310;8.134;2023-02-28T17:42:49;4.80;99.90
3300;DHT22;1662;49.310;8.134;2023-02-28T17:45:17;4.60;99.90
3300;DHT22;1662;49.310;8.134;2023-02-28T17:47:45;4.30;99.90
3300;DHT22;1662;49.310;8.134;2023-02-28T17:50:21;4.20;99.90
3300;DHT22;1662;49.310;8.134;2023-02-28T17:52:47;4.20;99.90
3300;DHT22;1662;49.310;8.134;2023-02-28T17:55:13;4.20;99.90
3300;DHT22;1662;49.310;8.134;2023-02-28T17:57:39;4.10;99.90
3300;DHT22;1662;49.310;8.134;2023-02-28T18:00:10;4.20;99.90
3300;DHT22;1662;49.310;8.134;2023-02-28T18:02:37;4.10;99.90
3300;DHT22;1662;49.310;8.134;2023-02-28T18:05:02;4.10;99.90
3300;DHT22;1662;49.310;8.134;2023-02-28T18:07:29;4.20;99.90
3300;DHT22;1662;49.310;8.134;2023-02-28T18:09:55;4.10;99.90
3300;DHT22;1662;49.310;8.134;2023-02-28T18:12:20;4.20;99.90
3300;DHT22;1662;49.310;8.134;2023-02-28T18:14:46;4.30;99.90
3300;DHT22;1662;49.310;8.134;2023-02-28T18:17:13;4.20;99.90
3300;DHT22;1662;49.310;8.134;2023-02-28T18:19:38;4.00;99.90
3300;DHT22;1662;49.310;8.134;2023-02-28T18:22:04;4.10;99.90
3300;DHT22;1662;49.310;8.134;2023-02-28T18:24:32;3.90;99.90
3300;DHT22;1662;49.310;8.134;2023-02-28T18:26:58;3.70;99.90
3300;DHT22;1662;49.310;8.134;2023-02-28T18:29:25;3.70;99.90
3300;DHT22;1662;49.310;8.134;2023-02-28T18:31:52;3.70;99.90
3300;DHT22;1662;49.310;8.134;2023-02-28T18:34:22;3.60;99.90
3300;DHT22;1662;49.310;8.134;2023-02-28T18:36:48;3.50;99.90
3300;DHT22;1662;49.310;8.134;2023-02-28T18:39:15;3.50;99.90
3300;DHT22;1662;49.310;8.134;2023-02-28T18:41:41;3.50;99.90
3300;DHT22;1662;49.310;8.134;2023-02-28T18:44:08;3.60;99.90
3300;DHT22;1662;49.310;8.134;2023-02-28T18:46:34;3.60;99.90
3300;DHT22;1662;49.310;8.134;2023-02-28T18:48:59;3.90;99.90
3300;DHT22;1662;49.310;8.134;2023-02-28T18:51:27;3.90;99.90
3300;DHT22;1662;49.310;8.134;2023-02-28T18:53:53;3.90;99.90
3300;DHT22;1662;49.310;8.134;2023-02-28T18:56:20;4.00;99.90
3300;DHT22;1662;49.310;8.134;2023-02-28T18:58:48;3.80;99.90
3300;DHT22;1662;49.310;8.134;2023-02-28T19:01:19;3.50;99.90
3300;DHT22;1662;49.310;8.134;2023-02-28T19:03:46;3.60;99.90
3300;DHT22;1662;49.310;8.134;2023-02-28T19:06:12;3.60;99.90
3300;DHT22;1662;49.310;8.134;2023-02-28T19:08:38;3.60;99.90
3300;DHT22;1662;49.310;8.134;2023-02-28T19:11:12;3.60;99.90
3300;DHT22;1662;49.310;8.134;2023-02-28T19:13:38;3.50;99.90
3300;DHT22;1662;49.310;8.134;2023-02-28T19:16:06;3.50;99.90